createdAt,value
2018-10-05T00:00:11.704Z,6.40
2018-10-05T00:02:40.215Z,5.83
2018-10-05T00:05:08.873Z,5.13
2018-10-05T00:07:37.468Z,6.13
2018-10-05T00:10:06.126Z,5.47
2018-10-05T00:12:34.815Z,5.60
2018-10-05T00:15:03.428Z,6.57
2018-10-05T00:17:31.992Z,5.50
2018-10-05T00:20:00.806Z,5.87
2018-10-05T00:22:29.369Z,5.90
2018-10-05T00:24:57.933Z,8.10
2018-10-05T00:27:26.473Z,7.43
2018-10-05T00:29:55.108Z,7.40
2018-10-05T00:32:23.689Z,7.23
2018-10-05T00:34:52.232Z,7.00
2018-10-05T00:37:20.756Z,7.47
2018-10-05T00:39:49.320Z,6.30
2018-10-05T00:42:17.849Z,6.20
2018-10-05T00:44:46.400Z,5.93
2018-10-05T00:47:14.972Z,5.60
2018-10-05T00:49:43.612Z,7.00
2018-10-05T00:52:12.160Z,5.40
2018-10-05T00:54:40.977Z,5.03
2018-10-05T00:57:09.503Z,5.77
2018-10-05T00:59:38.083Z,5.20
2018-10-05T01:02:06.944Z,6.13
2018-10-05T01:04:35.492Z,5.30
2018-10-05T01:07:04.112Z,6.27
2018-10-05T01:09:32.744Z,5.50
2018-10-05T01:12:01.266Z,5.63
2018-10-05T01:14:29.853Z,5.10
2018-10-05T01:16:58.636Z,5.70
2018-10-05T01:19:27.188Z,5.50
2018-10-05T01:21:55.721Z,5.80
2018-10-05T01:24:24.299Z,6.20
2018-10-05T01:26:52.959Z,5.30
2018-10-05T01:29:21.497Z,6.70
2018-10-05T01:31:50.076Z,6.40
2018-10-05T01:34:18.612Z,6.33
2018-10-05T01:36:49.158Z,5.93
2018-10-05T01:39:17.691Z,5.90
2018-10-05T01:41:46.268Z,6.03
2018-10-05T01:44:14.794Z,6.00
2018-10-05T01:46:43.371Z,6.67
2018-10-05T01:49:11.915Z,5.40
2018-10-05T01:51:40.461Z,5.53
2018-10-05T01:54:08.987Z,5.83
2018-10-05T01:56:37.544Z,5.40
2018-10-05T01:59:06.197Z,4.80
2018-10-05T02:01:34.746Z,5.57
2018-10-05T02:04:03.431Z,5.30
2018-10-05T02:06:32.032Z,5.80
2018-10-05T02:09:00.598Z,5.53
2018-10-05T02:11:29.116Z,6.30
2018-10-05T02:13:57.692Z,5.97
2018-10-05T02:16:26.203Z,5.10
2018-10-05T02:18:54.840Z,6.60
2018-10-05T02:21:23.378Z,5.87
2018-10-05T02:23:51.956Z,6.13
2018-10-05T02:26:20.699Z,5.77
2018-10-05T02:28:49.460Z,5.63
2018-10-05T02:31:18.123Z,6.37
2018-10-05T02:33:46.702Z,5.30
2018-10-05T02:36:15.636Z,6.30
2018-10-05T02:38:44.612Z,7.90
2018-10-05T02:41:14.280Z,8.20
2018-10-05T02:43:42.812Z,9.70
2018-10-05T02:46:11.443Z,7.33
2018-10-05T02:48:40.117Z,6.17
2018-10-05T02:51:08.813Z,5.87
2018-10-05T02:53:37.496Z,6.73
2018-10-05T02:56:06.180Z,6.40
2018-10-05T02:58:34.718Z,7.40
2018-10-05T03:01:14.248Z,6.57
2018-10-05T03:03:42.777Z,8.60
2018-10-05T03:06:11.313Z,8.17
2018-10-05T03:08:39.852Z,8.10
2018-10-05T03:11:08.383Z,9.07
2018-10-05T03:13:36.924Z,8.30
2018-10-05T03:16:05.479Z,7.60
2018-10-05T03:18:34.028Z,7.47
2018-10-05T03:21:02.897Z,5.60
2018-10-05T03:23:31.452Z,6.73
2018-10-05T03:26:00.026Z,8.00
2018-10-05T03:28:28.580Z,7.03
2018-10-05T03:30:57.107Z,5.53
2018-10-05T03:33:25.665Z,6.23
2018-10-05T03:35:54.217Z,6.10
2018-10-05T03:38:22.739Z,5.87
2018-10-05T03:40:51.304Z,6.90
2018-10-05T03:43:19.808Z,5.43
2018-10-05T03:45:48.324Z,7.00
2018-10-05T03:48:16.961Z,8.13
2018-10-05T03:50:45.501Z,6.13
2018-10-05T03:53:14.057Z,7.57
2018-10-05T03:55:42.606Z,6.80
2018-10-05T03:58:11.164Z,6.77
2018-10-05T04:00:39.700Z,7.00
2018-10-05T04:03:08.295Z,8.30
2018-10-05T04:05:36.836Z,7.90
2018-10-05T04:08:05.507Z,6.67
2018-10-05T04:10:34.043Z,6.47
2018-10-05T04:13:02.642Z,6.30
2018-10-05T04:15:31.325Z,6.80
2018-10-05T04:17:59.911Z,6.30
2018-10-05T04:20:28.449Z,6.60
2018-10-05T04:22:56.991Z,8.47
2018-10-05T04:25:25.563Z,6.93
2018-10-05T04:27:54.111Z,5.80
2018-10-05T04:30:22.717Z,6.43
2018-10-05T04:32:51.283Z,7.07
2018-10-05T04:35:19.844Z,6.83
2018-10-05T04:37:48.387Z,6.67
2018-10-05T04:40:17.579Z,6.10
2018-10-05T04:42:46.145Z,6.23
2018-10-05T04:45:14.703Z,5.97
2018-10-05T04:47:43.216Z,6.90
2018-10-05T04:50:11.761Z,7.13
2018-10-05T04:52:40.421Z,5.63
2018-10-05T04:55:08.980Z,5.73
2018-10-05T04:57:37.558Z,7.03
2018-10-05T05:00:06.248Z,5.30
2018-10-05T05:02:35.676Z,5.53
2018-10-05T05:05:04.240Z,5.73
2018-10-05T05:07:32.830Z,6.23
2018-10-05T05:10:01.439Z,6.30
2018-10-05T05:12:29.986Z,5.63
2018-10-05T05:14:58.546Z,5.43
2018-10-05T05:17:27.165Z,6.07
2018-10-05T05:19:55.712Z,6.53
2018-10-05T05:22:24.223Z,7.10
2018-10-05T05:24:52.795Z,6.57
2018-10-05T05:27:21.315Z,6.13
2018-10-05T05:29:49.852Z,6.37
2018-10-05T05:32:18.596Z,6.40
2018-10-05T05:34:47.148Z,6.60
2018-10-05T05:37:15.733Z,5.87
2018-10-05T05:39:44.294Z,5.30
2018-10-05T05:42:12.828Z,5.50
2018-10-05T05:44:41.367Z,5.83
2018-10-05T05:47:10.132Z,6.83
2018-10-05T05:49:38.808Z,7.27
2018-10-05T05:52:07.552Z,8.70
2018-10-05T05:54:36.138Z,8.50
2018-10-05T05:57:04.659Z,8.17
2018-10-05T05:59:33.239Z,7.60
2018-10-05T06:02:01.915Z,6.57
2018-10-05T06:04:30.464Z,6.13
2018-10-05T06:06:59.057Z,6.90
2018-10-05T06:09:27.657Z,7.23
2018-10-05T06:11:56.220Z,7.07
2018-10-05T06:14:24.773Z,9.27
2018-10-05T06:16:53.310Z,10.57
2018-10-05T06:19:21.836Z,7.87
2018-10-05T06:21:50.513Z,9.80
2018-10-05T06:24:18.992Z,9.23
2018-10-05T06:26:52.599Z,8.53
2018-10-05T06:29:21.149Z,8.57
2018-10-05T06:31:49.746Z,7.37
2018-10-05T06:34:18.274Z,8.50
2018-10-05T06:36:46.840Z,7.50
2018-10-05T06:39:15.451Z,7.23
2018-10-05T06:41:43.913Z,6.23
2018-10-05T06:44:12.465Z,7.00
2018-10-05T06:46:41.020Z,7.83
2018-10-05T06:49:09.592Z,6.67
2018-10-05T06:51:38.150Z,6.47
2018-10-05T06:54:06.740Z,7.40
2018-10-05T06:56:35.276Z,6.47
2018-10-05T06:59:03.808Z,7.57
2018-10-05T07:01:32.442Z,6.80
2018-10-05T07:04:00.903Z,6.50
2018-10-05T07:06:29.479Z,8.17
2018-10-05T07:08:58.000Z,6.73
2018-10-05T07:11:26.626Z,7.87
2018-10-05T07:13:55.216Z,7.67
2018-10-05T07:16:23.793Z,10.10
2018-10-05T07:21:55.016Z,9.10
2018-10-05T07:24:23.563Z,9.20
2018-10-05T07:26:52.099Z,8.60
2018-10-05T07:29:20.668Z,7.80
2018-10-05T07:31:49.276Z,9.40
2018-10-05T07:34:18.047Z,8.67
2018-10-05T07:36:46.623Z,9.67
2018-10-05T07:39:15.160Z,11.03
2018-10-05T07:41:43.744Z,9.70
2018-10-05T07:44:12.277Z,8.50
2018-10-05T07:46:40.837Z,8.60
2018-10-05T07:49:09.396Z,9.53
2018-10-05T07:51:37.985Z,8.83
2018-10-05T07:54:06.573Z,8.90
2018-10-05T07:56:35.115Z,9.27
2018-10-05T07:59:03.674Z,10.93
2018-10-05T08:01:32.229Z,10.50
2018-10-05T08:04:00.837Z,10.00
2018-10-05T08:06:29.403Z,8.67
2018-10-05T08:08:57.945Z,8.20
2018-10-05T08:11:26.484Z,8.80
2018-10-05T08:13:55.063Z,6.80
2018-10-05T08:16:23.601Z,8.00
2018-10-05T08:18:52.270Z,8.30
2018-10-05T08:21:20.896Z,7.20
2018-10-05T08:23:49.761Z,7.37
2018-10-05T08:26:18.335Z,19.33
2018-10-05T08:28:47.196Z,16.80
2018-10-05T08:31:15.764Z,15.27
2018-10-05T08:33:44.388Z,16.10
2018-10-05T08:36:12.903Z,16.03
2018-10-05T08:38:41.544Z,16.07
2018-10-05T08:41:10.093Z,17.43
2018-10-05T08:43:38.776Z,16.50
2018-10-05T08:46:07.400Z,13.63
2018-10-05T08:48:35.946Z,12.80
2018-10-05T08:51:04.503Z,11.33
2018-10-05T08:53:33.060Z,9.27
2018-10-05T08:56:01.650Z,9.03
2018-10-05T08:58:30.268Z,9.83
2018-10-05T09:00:58.801Z,9.57
2018-10-05T09:03:27.365Z,8.20
2018-10-05T09:05:56.084Z,9.23
2018-10-05T09:08:24.489Z,8.30
2018-10-05T09:10:53.056Z,8.33
2018-10-05T09:13:21.585Z,7.97
2018-10-05T09:15:50.107Z,7.90
2018-10-05T09:18:18.867Z,8.07
2018-10-05T09:20:47.388Z,9.80
2018-10-05T09:23:15.929Z,8.80
2018-10-05T09:25:44.446Z,7.63
2018-10-05T09:28:12.993Z,7.90
2018-10-05T09:30:41.524Z,7.90
2018-10-05T09:33:10.076Z,8.47
2018-10-05T09:35:38.684Z,7.50
2018-10-05T09:38:07.234Z,7.40
2018-10-05T09:40:35.756Z,6.60
2018-10-05T09:43:04.305Z,6.27
2018-10-05T09:45:32.840Z,7.07
2018-10-05T09:48:01.437Z,6.60
2018-10-05T09:50:29.955Z,6.60
2018-10-05T09:52:58.527Z,6.33
2018-10-05T09:55:27.101Z,6.23
2018-10-05T09:57:55.649Z,6.03
2018-10-05T10:00:40.562Z,6.47
2018-10-05T10:03:14.203Z,7.13
2018-10-05T10:05:42.743Z,6.63
2018-10-05T10:08:11.437Z,5.90
2018-10-05T10:10:39.979Z,6.23
2018-10-05T10:13:08.540Z,6.97
2018-10-05T10:15:37.120Z,6.63
2018-10-05T10:18:05.944Z,6.20
2018-10-05T10:20:34.524Z,6.30
2018-10-05T10:23:03.052Z,5.53
2018-10-05T10:25:31.657Z,5.83
2018-10-05T10:28:00.251Z,6.97
2018-10-05T10:30:28.742Z,6.27
2018-10-05T10:32:57.277Z,5.90
2018-10-05T10:35:25.823Z,5.30
2018-10-05T10:37:54.490Z,5.67
2018-10-05T10:40:23.015Z,4.80
2018-10-05T10:42:51.641Z,5.30
2018-10-05T10:45:20.175Z,5.70
2018-10-05T10:47:48.763Z,5.27
2018-10-05T10:50:17.292Z,5.13
2018-10-05T10:52:45.815Z,5.60
2018-10-05T10:55:14.363Z,4.70
2018-10-05T10:57:42.900Z,6.20
2018-10-05T11:00:11.525Z,5.40
2018-10-05T11:02:40.072Z,5.13
2018-10-05T11:05:08.623Z,4.57
2018-10-05T11:10:28.192Z,5.80
2018-10-05T11:12:56.719Z,5.63
2018-10-05T11:15:25.325Z,5.57
2018-10-05T11:17:57.880Z,6.40
2018-10-05T11:20:26.536Z,5.70
2018-10-05T11:22:55.068Z,5.00
2018-10-05T11:25:23.610Z,6.07
2018-10-05T11:27:52.227Z,5.60
2018-10-05T11:30:20.779Z,5.40
2018-10-05T11:32:49.337Z,6.80
2018-10-05T11:35:17.959Z,7.73
2018-10-05T11:37:46.484Z,5.97
2018-10-05T11:40:15.084Z,6.23
2018-10-05T11:42:43.655Z,6.07
2018-10-05T11:45:12.209Z,6.73
2018-10-05T11:47:40.736Z,5.70
2018-10-05T11:50:09.339Z,5.93
2018-10-05T11:52:37.859Z,6.50
2018-10-05T11:55:06.434Z,5.53
2018-10-05T11:57:34.960Z,6.50
2018-10-05T12:00:06.910Z,6.00
2018-10-05T12:02:35.532Z,5.50
2018-10-05T12:05:04.147Z,5.70
2018-10-05T12:07:32.696Z,5.10
2018-10-05T12:10:02.008Z,5.73
2018-10-05T12:12:30.567Z,6.30
2018-10-05T12:14:59.084Z,5.70
2018-10-05T12:17:27.854Z,6.47
2018-10-05T12:19:56.440Z,5.80
2018-10-05T12:22:25.027Z,5.90
2018-10-05T12:24:53.571Z,5.60
2018-10-05T12:27:22.125Z,6.07
2018-10-05T12:29:50.714Z,5.37
2018-10-05T12:32:19.232Z,6.17
2018-10-05T12:34:47.788Z,5.10
2018-10-05T12:37:16.466Z,5.43
2018-10-05T12:39:44.920Z,5.57
2018-10-05T12:42:13.464Z,6.10
2018-10-05T12:44:42.159Z,4.60
2018-10-05T12:47:10.713Z,3.97
2018-10-05T12:49:39.280Z,4.63
2018-10-05T12:52:07.861Z,5.60
2018-10-05T12:54:36.443Z,5.60
2018-10-05T12:57:05.051Z,5.47
2018-10-05T12:59:33.596Z,5.97
2018-10-05T13:02:02.142Z,5.00
2018-10-05T13:04:30.665Z,4.40
2018-10-05T13:06:59.224Z,4.43
2018-10-05T13:09:27.759Z,4.47
2018-10-05T13:11:56.308Z,3.73
2018-10-05T13:14:24.853Z,3.77
2018-10-05T13:16:53.414Z,3.27
2018-10-05T13:19:21.968Z,2.87
2018-10-05T13:21:50.531Z,3.47
2018-10-05T13:24:19.059Z,3.20
2018-10-05T13:26:47.608Z,2.93
2018-10-05T13:29:16.156Z,3.83
2018-10-05T13:31:44.700Z,2.80
2018-10-05T13:34:13.339Z,4.43
2018-10-05T13:36:41.800Z,3.60
2018-10-05T13:39:11.232Z,3.67
2018-10-05T13:41:40.266Z,3.70
2018-10-05T13:44:08.806Z,3.93
2018-10-05T13:46:37.363Z,3.90
2018-10-05T13:49:06.720Z,4.40
2018-10-05T13:51:36.568Z,5.20
2018-10-05T13:54:05.393Z,4.50
2018-10-05T13:56:34.356Z,4.80
2018-10-05T13:59:02.925Z,4.50
2018-10-05T14:01:31.472Z,5.33
2018-10-05T14:04:00.045Z,4.83
2018-10-05T14:06:28.614Z,4.70
2018-10-05T14:08:57.930Z,4.80
2018-10-05T14:11:26.546Z,5.20
2018-10-05T14:13:55.124Z,5.03
2018-10-05T14:19:13.799Z,5.07
2018-10-05T14:21:42.340Z,4.27
2018-10-05T14:24:10.948Z,5.73
2018-10-05T14:26:39.500Z,5.60
2018-10-05T14:29:08.077Z,5.47
2018-10-05T14:31:36.625Z,6.03
2018-10-05T14:34:05.183Z,5.10
2018-10-05T14:36:33.735Z,5.47
2018-10-05T14:39:02.352Z,4.20
2018-10-05T14:41:30.997Z,5.77
2018-10-05T14:43:59.504Z,4.93
2018-10-05T14:46:28.061Z,4.83
2018-10-05T14:48:56.665Z,4.57
2018-10-05T14:51:25.254Z,4.70
2018-10-05T14:53:53.799Z,4.80
2018-10-05T14:56:22.363Z,4.07
2018-10-05T14:58:50.994Z,4.03
2018-10-05T15:01:19.574Z,4.47
2018-10-05T15:03:48.151Z,4.80
2018-10-05T15:06:16.703Z,4.87
2018-10-05T15:08:45.242Z,4.73
2018-10-05T15:11:13.788Z,4.40
2018-10-05T15:13:42.429Z,4.27
2018-10-05T15:16:11.113Z,5.73
2018-10-05T15:18:39.660Z,6.50
2018-10-05T15:21:08.308Z,7.93
2018-10-05T15:23:36.987Z,6.70
2018-10-05T15:26:05.615Z,12.47
2018-10-05T15:28:34.187Z,13.73
2018-10-05T15:31:02.819Z,11.50
2018-10-05T15:33:31.389Z,8.10
2018-10-05T15:35:59.930Z,10.00
2018-10-05T15:38:28.495Z,10.00
2018-10-05T15:40:57.084Z,13.37
2018-10-05T15:43:25.646Z,12.90
2018-10-05T15:46:08.347Z,7.57
2018-10-05T15:51:27.088Z,7.27
2018-10-05T15:53:55.636Z,5.40
2018-10-05T15:56:24.178Z,9.50
2018-10-05T15:58:52.754Z,8.83
2018-10-05T16:01:21.278Z,6.53
2018-10-05T16:03:49.836Z,11.87
2018-10-05T16:06:18.456Z,27.60
2018-10-05T16:08:46.995Z,41.07
2018-10-05T16:11:15.567Z,15.93
2018-10-05T16:13:44.113Z,11.70
2018-10-05T16:16:12.713Z,18.87
2018-10-05T17:56:10.341Z,6.80
2018-10-05T17:58:38.871Z,7.23
2018-10-05T18:01:07.725Z,6.50
2018-10-05T18:03:37.078Z,6.17
2018-10-05T18:06:05.622Z,7.90
2018-10-05T18:08:34.216Z,7.03
2018-10-05T18:11:02.752Z,7.47
2018-10-05T18:13:31.306Z,7.13
2018-10-05T18:15:59.924Z,6.60
2018-10-05T18:18:28.508Z,7.30
2018-10-05T18:20:57.048Z,7.90
2018-10-05T18:23:25.640Z,7.47
2018-10-05T18:25:54.204Z,8.43
2018-10-05T18:28:22.732Z,8.23
2018-10-05T18:30:57.243Z,10.53
2018-10-05T18:33:25.796Z,8.53
2018-10-05T18:35:54.567Z,8.43
2018-10-05T18:38:23.136Z,7.47
2018-10-05T18:40:51.680Z,7.00
2018-10-05T18:43:20.228Z,7.10
2018-10-05T18:45:48.798Z,9.67
2018-10-05T18:48:17.343Z,12.27
2018-10-05T18:50:45.935Z,11.93
2018-10-05T18:53:14.516Z,10.17
2018-10-05T18:55:43.068Z,9.13
2018-10-05T18:58:11.632Z,9.13
2018-10-05T19:00:40.305Z,9.13
2018-10-05T19:03:08.889Z,9.30
2018-10-05T19:05:37.525Z,9.17
2018-10-05T19:08:06.467Z,7.97
2018-10-05T19:10:34.993Z,8.30
2018-10-05T19:13:03.621Z,8.13
2018-10-05T19:15:32.162Z,11.20
2018-10-05T19:18:00.691Z,14.00
2018-10-05T19:20:29.409Z,17.47
2018-10-05T19:22:58.113Z,17.97
2018-10-05T19:25:26.732Z,17.33
2018-10-05T19:27:55.289Z,17.50
2018-10-05T19:30:23.836Z,14.63
2018-10-05T19:32:52.425Z,12.73
2018-10-05T19:35:20.951Z,11.57
2018-10-05T19:37:49.819Z,10.63
2018-10-05T19:40:18.798Z,9.50
2018-10-05T19:42:47.702Z,9.70
2018-10-05T19:45:16.395Z,8.50
2018-10-05T19:47:45.215Z,8.73
2018-10-05T19:50:13.827Z,9.00
2018-10-05T19:52:42.382Z,9.43
2018-10-05T19:55:10.915Z,9.77
2018-10-05T19:57:39.477Z,8.20
2018-10-05T20:00:08.061Z,8.20
2018-10-05T20:02:37.498Z,8.83
2018-10-05T20:05:06.135Z,9.03
2018-10-05T20:07:34.695Z,10.70
2018-10-05T20:10:03.334Z,9.50
2018-10-05T20:12:31.872Z,8.47
2018-10-05T20:15:00.483Z,8.40
2018-10-05T20:17:29.020Z,8.23
2018-10-05T20:19:57.588Z,8.87
2018-10-05T20:22:26.168Z,6.70
2018-10-05T20:24:54.729Z,7.20
2018-10-05T20:27:23.268Z,6.23
2018-10-05T20:29:51.863Z,7.17
2018-10-05T20:32:20.433Z,6.70
2018-10-05T20:34:48.993Z,9.30
2018-10-05T20:37:17.614Z,9.73
2018-10-05T20:39:46.159Z,9.93
2018-10-05T20:42:14.712Z,11.30
2018-10-05T20:44:43.264Z,9.47
2018-10-05T20:47:11.864Z,8.83
2018-10-05T20:49:40.427Z,7.50
2018-10-05T20:52:08.982Z,9.80
2018-10-05T20:54:37.509Z,8.27
2018-10-05T20:57:06.116Z,7.57
2018-10-05T20:59:34.656Z,9.50
2018-10-05T21:02:03.298Z,8.30
2018-10-05T21:04:31.879Z,8.27
2018-10-05T21:07:00.427Z,8.33
2018-10-05T21:09:28.974Z,8.63
2018-10-05T21:11:57.551Z,8.37
2018-10-05T21:14:26.131Z,8.53
2018-10-05T21:16:54.671Z,8.70
2018-10-05T21:19:23.223Z,8.30
2018-10-05T21:21:51.771Z,8.40
2018-10-05T21:24:20.296Z,8.93
2018-10-05T21:26:48.844Z,9.80
2018-10-05T21:29:20.321Z,8.00
2018-10-05T21:31:48.859Z,8.77
2018-10-05T21:34:17.384Z,9.87
2018-10-05T21:36:45.978Z,8.20
2018-10-05T21:39:14.540Z,8.40
2018-10-05T21:41:43.177Z,8.07
2018-10-05T21:44:11.784Z,8.37
2018-10-05T21:46:40.677Z,8.20
2018-10-05T21:49:09.215Z,8.57
2018-10-05T21:51:37.797Z,7.60
2018-10-05T21:54:06.425Z,8.27
2018-10-05T21:56:34.971Z,7.90
2018-10-05T21:59:03.646Z,8.47
2018-10-05T22:01:32.320Z,8.90
2018-10-05T22:04:00.852Z,7.50
2018-10-05T22:06:29.396Z,7.67
2018-10-05T22:08:57.916Z,8.13
2018-10-05T22:11:26.452Z,9.30
2018-10-05T22:13:54.996Z,8.43
2018-10-05T22:16:23.515Z,7.03
